sensor_id;sensor_type;location;lat;lon;timestamp;pressure;altitude;pressure_sealevel;temperature;humidity
69257;BME280;56376;53.356;-1.748;2023-04-06T00:01:35;99152.59;;;8.66;100.00
69257;BME280;56376;53.356;-1.748;2023-04-06T00:04:01;99149.13;;;8.65;100.00
69257;BME280;56376;53.356;-1.748;2023-04-06T00:06:26;99134.47;;;8.63;100.00
69257;BME280;56376;53.356;-1.748;2023-04-06T00:08:52;99143.94;;;8.65;100.00
69257;BME280;56376;53.356;-1.748;2023-04-06T00:11:18;99136.97;;;8.66;100.00
69257;BME280;56376;53.356;-1.748;2023-04-06T00:13:44;99138.72;;;8.65;100.00
69257;BME280;56376;53.356;-1.748;2023-04-06T00:16:10;99127.47;;;8.65;100.00
69257;BME280;56376;53.356;-1.748;2023-04-06T00:18:35;99131.75;;;8.66;100.00
69257;BME280;56376;53.356;-1.748;2023-04-06T00:21:01;99122.25;;;8.65;100.00
69257;BME280;56376;53.356;-1.748;2023-04-06T00:23:27;99123.06;;;8.67;100.00
69257;BME280;56376;53.356;-1.748;2023-04-06T00:25:52;99118.75;;;8.66;100.00
69257;BME280;56376;53.356;-1.748;2023-04-06T00:28:18;99115.28;;;8.65;100.00
69257;BME280;56376;53.356;-1.748;2023-04-06T00:30:50;99119.59;;;8.66;100.00
69257;BME280;56376;53.356;-1.748;2023-04-06T00:33:17;99116.97;;;8.66;100.00
69257;BME280;56376;53.356;-1.748;2023-04-06T00:35:42;99118.75;;;8.66;100.00
69257;BME280;56376;53.356;-1.748;2023-04-06T00:38:08;99108.28;;;8.68;100.00
69257;BME280;56376;53.356;-1.748;2023-04-06T00:40:33;99098.75;;;8.66;100.00
69257;BME280;56376;53.356;-1.748;2023-04-06T00:43:00;99099.63;;;8.67;100.00
69257;BME280;56376;53.356;-1.748;2023-04-06T00:45:26;99095.31;;;8.66;100.00
69257;BME280;56376;53.356;-1.748;2023-04-06T00:47:51;99097.91;;;8.66;100.00
69257;BME280;56376;53.356;-1.748;2023-04-06T00:50:17;99093.50;;;8.68;100.00
69257;BME280;56376;53.356;-1.748;2023-04-06T00:52:43;99084.09;;;8.64;100.00
69257;BME280;56376;53.356;-1.748;2023-04-06T00:55:09;99091.81;;;8.67;100.00
69257;BME280;56376;53.356;-1.748;2023-04-06T00:57:35;99091.81;;;8.67;100.00
69257;BME280;56376;53.356;-1.748;2023-04-06T01:00:01;99089.22;;;8.67;100.00
69257;BME280;56376;53.356;-1.748;2023-04-06T01:02:27;99078.78;;;8.67;100.00
69257;BME280;56376;53.356;-1.748;2023-04-06T01:04:53;99077.09;;;8.66;100.00
69257;BME280;56376;53.356;-1.748;2023-04-06T01:07:19;99074.47;;;8.66;100.00
69257;BME280;56376;53.356;-1.748;2023-04-06T01:09:45;99070.22;;;8.63;100.00
69257;BME280;56376;53.356;-1.748;2023-04-06T01:12:10;99073.63;;;8.65;100.00
69257;BME280;56376;53.356;-1.748;2023-04-06T01:14:36;99077.09;;;8.66;100.00
69257;BME280;56376;53.356;-1.748;2023-04-06T01:17:01;99067.59;;;8.65;100.00
69257;BME280;56376;53.356;-1.748;2023-04-06T01:19:27;99064.97;;;8.65;100.00
69257;BME280;56376;53.356;-1.748;2023-04-06T01:21:53;99058.06;;;8.64;100.00
69257;BME280;56376;53.356;-1.748;2023-04-06T01:24:20;99048.59;;;8.61;100.00
69257;BME280;56376;53.356;-1.748;2023-04-06T01:26:46;99045.94;;;8.63;100.00
69257;BME280;56376;53.356;-1.748;2023-04-06T01:29:11;99051.16;;;8.63;100.00
69257;BME280;56376;53.356;-1.748;2023-04-06T01:31:38;99037.31;;;8.62;100.00
69257;BME280;56376;53.356;-1.748;2023-04-06T01:34:03;99045.03;;;8.64;100.00
69257;BME280;56376;53.356;-1.748;2023-04-06T01:36:29;99040.69;;;8.64;100.00
69257;BME280;56376;53.356;-1.748;2023-04-06T01:38:55;99040.75;;;8.63;100.00
69257;BME280;56376;53.356;-1.748;2023-04-06T01:41:20;99032.94;;;8.63;100.00
69257;BME280;56376;53.356;-1.748;2023-04-06T01:43:47;99033.78;;;8.63;100.00
69257;BME280;56376;53.356;-1.748;2023-04-06T01:46:14;99033.78;;;8.63;100.00
69257;BME280;56376;53.356;-1.748;2023-04-06T01:48:39;99025.97;;;8.63;100.00
69257;BME280;56376;53.356;-1.748;2023-04-06T01:51:05;99025.13;;;8.63;100.00
69257;BME280;56376;53.356;-1.748;2023-04-06T01:53:31;99022.53;;;8.63;100.00
69257;BME280;56376;53.356;-1.748;2023-04-06T01:55:56;99019.91;;;8.63;100.00
69257;BME280;56376;53.356;-1.748;2023-04-06T01:58:22;99015.56;;;8.63;100.00
69257;BME280;56376;53.356;-1.748;2023-04-06T02:00:47;99017.31;;;8.63;100.00
69257;BME280;56376;53.356;-1.748;2023-04-06T02:03:13;99011.31;;;8.61;100.00
69257;BME280;56376;53.356;-1.748;2023-04-06T02:05:39;99013.03;;;8.62;100.00
69257;BME280;56376;53.356;-1.748;2023-04-06T02:08:07;99010.41;;;8.62;100.00
69257;BME280;56376;53.356;-1.748;2023-04-06T02:10:33;99007.75;;;8.63;100.00
69257;BME280;56376;53.356;-1.748;2023-04-06T02:12:59;99005.13;;;8.63;100.00
69257;BME280;56376;53.356;-1.748;2023-04-06T02:15:25;98993.94;;;8.61;100.00
69257;BME280;56376;53.356;-1.748;2023-04-06T02:17:51;98987.00;;;8.62;100.00
69257;BME280;56376;53.356;-1.748;2023-04-06T02:20:17;98989.59;;;8.62;100.00
69257;BME280;56376;53.356;-1.748;2023-04-06T02:22:42;98989.59;;;8.62;100.00
69257;BME280;56376;53.356;-1.748;2023-04-06T02:25:08;98989.53;;;8.63;100.00
69257;BME280;56376;53.356;-1.748;2023-04-06T02:27:34;98978.31;;;8.61;100.00
69257;BME280;56376;53.356;-1.748;2023-04-06T02:30:00;98985.22;;;8.62;100.00
69257;BME280;56376;53.356;-1.748;2023-04-06T02:32:25;98975.66;;;8.63;100.00
69257;BME280;56376;53.356;-1.748;2023-04-06T02:34:51;98980.88;;;8.63;100.00
69257;BME280;56376;53.356;-1.748;2023-04-06T02:37:17;98977.41;;;8.62;100.00
69257;BME280;56376;53.356;-1.748;2023-04-06T02:39:43;98991.25;;;8.64;100.00
69257;BME280;56376;53.356;-1.748;2023-04-06T02:42:08;98982.50;;;8.65;100.00
69257;BME280;56376;53.356;-1.748;2023-04-06T02:44:34;98979.94;;;8.64;100.00
69257;BME280;56376;53.356;-1.748;2023-04-06T02:47:00;98978.22;;;8.64;100.00
69257;BME280;56376;53.356;-1.748;2023-04-06T02:49:25;98976.47;;;8.65;100.00
69257;BME280;56376;53.356;-1.748;2023-04-06T02:51:51;98973.84;;;8.65;100.00
69257;BME280;56376;53.356;-1.748;2023-04-06T02:54:16;98978.13;;;8.66;100.00
69257;BME280;56376;53.356;-1.748;2023-04-06T02:56:42;98979.84;;;8.67;100.00
69257;BME280;56376;53.356;-1.748;2023-04-06T02:59:08;98976.38;;;8.66;100.00
69257;BME280;56376;53.356;-1.748;2023-04-06T03:01:33;98975.50;;;8.68;100.00
69257;BME280;56376;53.356;-1.748;2023-04-06T03:04:25;98973.69;;;8.70;100.00
69257;BME280;56376;53.356;-1.748;2023-04-06T03:06:51;98958.94;;;8.69;100.00
69257;BME280;56376;53.356;-1.748;2023-04-06T03:09:17;98959.75;;;8.71;100.00
69257;BME280;56376;53.356;-1.748;2023-04-06T03:11:42;98954.53;;;8.71;100.00
69257;BME280;56376;53.356;-1.748;2023-04-06T03:14:08;98955.38;;;8.71;100.00
69257;BME280;56376;53.356;-1.748;2023-04-06T03:16:33;98941.53;;;8.71;100.00
69257;BME280;56376;53.356;-1.748;2023-04-06T03:18:59;98937.28;;;8.68;100.00
69257;BME280;56376;53.356;-1.748;2023-04-06T03:21:24;98942.25;;;8.74;100.00
69257;BME280;56376;53.356;-1.748;2023-04-06T03:23:50;98948.31;;;8.75;100.00
69257;BME280;56376;53.356;-1.748;2023-04-06T03:26:16;98943.13;;;8.75;100.00
69257;BME280;56376;53.356;-1.748;2023-04-06T03:28:42;98937.81;;;8.76;100.00
69257;BME280;56376;53.356;-1.748;2023-04-06T03:31:07;98935.31;;;8.75;100.00
69257;BME280;56376;53.356;-1.748;2023-04-06T03:33:33;98933.47;;;8.77;100.00
69257;BME280;56376;53.356;-1.748;2023-04-06T03:35:58;98929.19;;;8.76;100.00
69257;BME280;56376;53.356;-1.748;2023-04-06T03:38:24;98923.03;;;8.77;100.00
69257;BME280;56376;53.356;-1.748;2023-04-06T03:40:50;98931.72;;;8.77;100.00
69257;BME280;56376;53.356;-1.748;2023-04-06T03:43:15;98923.03;;;8.77;100.00
69257;BME280;56376;53.356;-1.748;2023-04-06T03:45:41;98921.41;;;8.74;100.00
69257;BME280;56376;53.356;-1.748;2023-04-06T03:48:06;98919.72;;;8.73;100.00
69257;BME280;56376;53.356;-1.748;2023-04-06T03:50:32;98917.97;;;8.74;100.00
69257;BME280;56376;53.356;-1.748;2023-04-06T03:52:57;98921.31;;;8.77;100.00
69257;BME280;56376;53.356;-1.748;2023-04-06T03:55:23;98917.84;;;8.77;100.00
69257;BME280;56376;53.356;-1.748;2023-04-06T03:57:48;98916.19;;;8.74;100.00
69257;BME280;56376;53.356;-1.748;2023-04-06T04:00:14;98924.69;;;8.79;100.00
69257;BME280;56376;53.356;-1.748;2023-04-06T04:02:40;98916.03;;;8.79;100.00
69257;BME280;56376;53.356;-1.748;2023-04-06T04:05:06;98915.16;;;8.80;100.00
69257;BME280;56376;53.356;-1.748;2023-04-06T04:07:31;98920.22;;;8.83;100.00
69257;BME280;56376;53.356;-1.748;2023-04-06T04:09:57;98919.38;;;8.82;100.00
69257;BME280;56376;53.356;-1.748;2023-04-06T04:12:22;98915.97;;;8.80;100.00
69257;BME280;56376;53.356;-1.748;2023-04-06T04:14:48;98903.00;;;8.79;100.00
69257;BME280;56376;53.356;-1.748;2023-04-06T04:17:13;98903.00;;;8.79;100.00
69257;BME280;56376;53.356;-1.748;2023-04-06T04:19:39;98899.53;;;8.80;100.00
69257;BME280;56376;53.356;-1.748;2023-04-06T04:22:04;98895.28;;;8.77;100.00
69257;BME280;56376;53.356;-1.748;2023-04-06T04:24:31;98897.69;;;8.82;100.00
69257;BME280;56376;53.356;-1.748;2023-04-06T04:26:57;98895.19;;;8.79;100.00
69257;BME280;56376;53.356;-1.748;2023-04-06T04:29:22;98900.28;;;8.82;100.00
69257;BME280;56376;53.356;-1.748;2023-04-06T04:31:49;98886.50;;;8.80;100.00
69257;BME280;56376;53.356;-1.748;2023-04-06T04:34:15;98893.50;;;8.78;100.00
69257;BME280;56376;53.356;-1.748;2023-04-06T04:36:41;98899.44;;;8.81;100.00
69257;BME280;56376;53.356;-1.748;2023-04-06T04:39:09;98892.59;;;8.79;100.00
69257;BME280;56376;53.356;-1.748;2023-04-06T04:41:34;98897.00;;;8.77;100.00
69257;BME280;56376;53.356;-1.748;2023-04-06T04:44:00;98897.00;;;8.77;100.00
69257;BME280;56376;53.356;-1.748;2023-04-06T04:46:26;98891.94;;;8.74;100.00
69257;BME280;56376;53.356;-1.748;2023-04-06T04:48:51;98894.59;;;8.72;100.00
69257;BME280;56376;53.356;-1.748;2023-04-06T04:51:16;98895.44;;;8.73;100.00
69257;BME280;56376;53.356;-1.748;2023-04-06T04:53:42;98892.84;;;8.73;100.00
69257;BME280;56376;53.356;-1.748;2023-04-06T04:56:07;98887.63;;;8.73;100.00
69257;BME280;56376;53.356;-1.748;2023-04-06T04:58:33;98894.41;;;8.77;100.00
69257;BME280;56376;53.356;-1.748;2023-04-06T05:00:58;98882.19;;;8.79;100.00
69257;BME280;56376;53.356;-1.748;2023-04-06T05:03:25;98886.50;;;8.80;100.00
69257;BME280;56376;53.356;-1.748;2023-04-06T05:05:52;98881.38;;;8.77;100.00
69257;BME280;56376;53.356;-1.748;2023-04-06T05:08:17;98887.69;;;8.71;100.00
69257;BME280;56376;53.356;-1.748;2023-04-06T05:10:43;98888.34;;;8.76;100.00
69257;BME280;56376;53.356;-1.748;2023-04-06T05:13:13;98880.66;;;8.73;100.00
69257;BME280;56376;53.356;-1.748;2023-04-06T05:15:39;98889.16;;;8.78;100.00
69257;BME280;56376;53.356;-1.748;2023-04-06T05:18:06;98892.69;;;8.77;100.00
69257;BME280;56376;53.356;-1.748;2023-04-06T05:20:32;98892.53;;;8.80;100.00
69257;BME280;56376;53.356;-1.748;2023-04-06T05:22:58;98888.97;;;8.83;100.00
69257;BME280;56376;53.356;-1.748;2023-04-06T05:25:23;98895.19;;;8.79;100.00
69257;BME280;56376;53.356;-1.748;2023-04-06T05:27:49;98898.72;;;8.78;100.00
69257;BME280;56376;53.356;-1.748;2023-04-06T05:30:15;98889.31;;;8.74;100.00
69257;BME280;56376;53.356;-1.748;2023-04-06T05:32:40;98886.78;;;8.72;100.00
69257;BME280;56376;53.356;-1.748;2023-04-06T05:35:08;98885.03;;;8.73;100.00
69257;BME280;56376;53.356;-1.748;2023-04-06T05:37:33;98888.44;;;8.75;100.00
69257;BME280;56376;53.356;-1.748;2023-04-06T05:39:59;98887.63;;;8.73;100.00
69257;BME280;56376;53.356;-1.748;2023-04-06T05:42:24;98878.91;;;8.74;100.00
69257;BME280;56376;53.356;-1.748;2023-04-06T05:44:50;98882.31;;;8.76;100.00
69257;BME280;56376;53.356;-1.748;2023-04-06T05:47:16;98875.28;;;8.78;100.00
69257;BME280;56376;53.356;-1.748;2023-04-06T05:49:42;98882.06;;;8.82;100.00
69257;BME280;56376;53.356;-1.748;2023-04-06T05:52:08;98881.16;;;8.83;100.00
69257;BME280;56376;53.356;-1.748;2023-04-06T05:54:35;98879.56;;;8.79;100.00
69257;BME280;56376;53.356;-1.748;2023-04-06T05:57:01;98881.38;;;8.77;100.00
69257;BME280;56376;53.356;-1.748;2023-04-06T05:59:29;98888.44;;;8.75;100.00
69257;BME280;56376;53.356;-1.748;2023-04-06T06:01:55;98888.44;;;8.75;100.00
69257;BME280;56376;53.356;-1.748;2023-04-06T06:04:20;98897.94;;;8.76;100.00
69257;BME280;56376;53.356;-1.748;2023-04-06T06:06:46;98890.97;;;8.76;100.00
69257;BME280;56376;53.356;-1.748;2023-04-06T06:09:12;98892.59;;;8.79;100.00
69257;BME280;56376;53.356;-1.748;2023-04-06T06:11:37;98893.25;;;8.84;100.00
69257;BME280;56376;53.356;-1.748;2023-04-06T06:14:03;98881.16;;;8.83;100.00
69257;BME280;56376;53.356;-1.748;2023-04-06T06:16:28;98893.50;;;8.78;100.00
69257;BME280;56376;53.356;-1.748;2023-04-06T06:18:54;98894.41;;;8.77;100.00
69257;BME280;56376;53.356;-1.748;2023-04-06T06:21:20;98911.78;;;8.76;100.00
69257;BME280;56376;53.356;-1.748;2023-04-06T06:23:45;98911.06;;;8.73;100.00
69257;BME280;56376;53.356;-1.748;2023-04-06T06:26:13;98914.53;;;8.73;100.00
69257;BME280;56376;53.356;-1.748;2023-04-06T06:28:38;98924.88;;;8.75;100.00
69257;BME280;56376;53.356;-1.748;2023-04-06T06:31:04;98926.56;;;8.76;100.00
69257;BME280;56376;53.356;-1.748;2023-04-06T06:33:29;98925.72;;;8.75;100.00
69257;BME280;56376;53.356;-1.748;2023-04-06T06:35:55;98926.69;;;8.73;100.00
69257;BME280;56376;53.356;-1.748;2023-04-06T06:38:20;98935.31;;;8.75;100.00
69257;BME280;56376;53.356;-1.748;2023-04-06T06:40:46;98935.19;;;8.78;100.00
69257;BME280;56376;53.356;-1.748;2023-04-06T06:43:12;98941.09;;;8.81;100.00
69257;BME280;56376;53.356;-1.748;2023-04-06T06:45:37;98946.31;;;8.81;100.00
69257;BME280;56376;53.356;-1.748;2023-04-06T06:48:03;98955.09;;;8.79;100.00
69257;BME280;56376;53.356;-1.748;2023-04-06T06:50:28;98937.78;;;8.78;100.00
69257;BME280;56376;53.356;-1.748;2023-04-06T06:52:54;98937.66;;;8.81;100.00
69257;BME280;56376;53.356;-1.748;2023-04-06T06:55:20;98943.13;;;8.75;100.00
69257;BME280;56376;53.356;-1.748;2023-04-06T06:57:45;98942.19;;;8.76;100.00
69257;BME280;56376;53.356;-1.748;2023-04-06T07:00:14;98943.88;;;8.77;100.00
69257;BME280;56376;53.356;-1.748;2023-04-06T07:02:40;98950.69;;;8.81;100.00
69257;BME280;56376;53.356;-1.748;2023-04-06T07:05:06;98971.75;;;8.75;100.00
69257;BME280;56376;53.356;-1.748;2023-04-06T07:07:32;98966.75;;;8.69;100.00
69257;BME280;56376;53.356;-1.748;2023-04-06T07:09:58;98969.72;;;8.59;100.00
69257;BME280;56376;53.356;-1.748;2023-04-06T07:12:24;98969.25;;;8.48;100.00
69257;BME280;56376;53.356;-1.748;2023-04-06T07:14:50;98972.03;;;8.43;100.00
69257;BME280;56376;53.356;-1.748;2023-04-06T07:17:15;98966.09;;;8.40;100.00
69257;BME280;56376;53.356;-1.748;2023-04-06T07:22:16;98975.94;;;8.30;100.00
69257;BME280;56376;53.356;-1.748;2023-04-06T07:24:42;98987.28;;;8.29;100.00
69257;BME280;56376;53.356;-1.748;2023-04-06T07:27:07;98983.88;;;8.27;100.00
69257;BME280;56376;53.356;-1.748;2023-04-06T07:29:33;98979.63;;;8.24;100.00
69257;BME280;56376;53.356;-1.748;2023-04-06T07:31:58;98972.66;;;8.25;100.00
69257;BME280;56376;53.356;-1.748;2023-04-06T07:34:23;98977.03;;;8.24;100.00
69257;BME280;56376;53.356;-1.748;2023-04-06T07:36:49;98979.91;;;8.17;100.00
69257;BME280;56376;53.356;-1.748;2023-04-06T07:39:15;98976.53;;;8.13;100.00
69257;BME280;56376;53.356;-1.748;2023-04-06T07:41:41;98977.63;;;8.08;100.00
69257;BME280;56376;53.356;-1.748;2023-04-06T07:44:06;98976.69;;;8.09;100.00
69257;BME280;56376;53.356;-1.748;2023-04-06T07:46:32;98980.22;;;8.08;100.00
69257;BME280;56376;53.356;-1.748;2023-04-06T07:48:59;98986.25;;;8.08;100.00
69257;BME280;56376;53.356;-1.748;2023-04-06T07:51:24;98984.41;;;8.12;100.00
69257;BME280;56376;53.356;-1.748;2023-04-06T07:53:51;98980.84;;;8.14;100.00
69257;BME280;56376;53.356;-1.748;2023-04-06T07:56:16;98989.53;;;8.13;100.00
69257;BME280;56376;53.356;-1.748;2023-04-06T07:58:43;98992.69;;;8.23;100.00
69257;BME280;56376;53.356;-1.748;2023-04-06T08:01:08;99000.97;;;8.34;100.00
69257;BME280;56376;53.356;-1.748;2023-04-06T08:03:35;99012.94;;;8.40;100.00
69257;BME280;56376;53.356;-1.748;2023-04-06T08:06:01;99029.53;;;8.36;100.00
69257;BME280;56376;53.356;-1.748;2023-04-06T08:08:27;99015.72;;;8.34;100.00
69257;BME280;56376;53.356;-1.748;2023-04-06T08:10:53;99024.44;;;8.33;100.00
69257;BME280;56376;53.356;-1.748;2023-04-06T08:13:18;99026.19;;;8.32;100.00
69257;BME280;56376;53.356;-1.748;2023-04-06T08:15:43;99016.75;;;8.30;100.00
69257;BME280;56376;53.356;-1.748;2023-04-06T08:18:09;99016.75;;;8.30;100.00
69257;BME280;56376;53.356;-1.748;2023-04-06T08:20:35;99018.53;;;8.28;100.00
69257;BME280;56376;53.356;-1.748;2023-04-06T08:23:01;99023.75;;;8.28;100.00
69257;BME280;56376;53.356;-1.748;2023-04-06T08:25:27;99030.44;;;8.35;100.00
69257;BME280;56376;53.356;-1.748;2023-04-06T08:27:52;99022.31;;;8.44;100.00
69257;BME280;56376;53.356;-1.748;2023-04-06T08:30:18;99007.97;;;8.57;100.00
69257;BME280;56376;53.356;-1.748;2023-04-06T08:32:45;99001.53;;;8.68;100.00
69257;BME280;56376;53.356;-1.748;2023-04-06T08:35:10;98995.00;;;8.79;100.00
69257;BME280;56376;53.356;-1.748;2023-04-06T08:37:36;99004.13;;;8.91;100.00
69257;BME280;56376;53.356;-1.748;2023-04-06T08:40:01;99000.41;;;8.97;100.00
69257;BME280;56376;53.356;-1.748;2023-04-06T08:42:28;99009.56;;;9.07;100.00
69257;BME280;56376;53.356;-1.748;2023-04-06T08:44:56;99007.56;;;9.15;100.00
69257;BME280;56376;53.356;-1.748;2023-04-06T08:47:22;99013.59;;;9.16;100.00
69257;BME280;56376;53.356;-1.748;2023-04-06T08:49:48;99011.78;;;9.18;100.00
69257;BME280;56376;53.356;-1.748;2023-04-06T08:52:17;99009.00;;;9.22;100.00
69257;BME280;56376;53.356;-1.748;2023-04-06T08:54:43;99021.00;;;9.26;100.00
69257;BME280;56376;53.356;-1.748;2023-04-06T08:57:08;99019.81;;;9.35;100.00
69257;BME280;56376;53.356;-1.748;2023-04-06T08:59:34;99034.03;;;9.48;100.00
69257;BME280;56376;53.356;-1.748;2023-04-06T09:02:03;99022.34;;;9.59;100.00
69257;BME280;56376;53.356;-1.748;2023-04-06T09:04:29;99051.25;;;9.74;100.00
69257;BME280;56376;53.356;-1.748;2023-04-06T09:06:54;99043.22;;;9.79;100.00
69257;BME280;56376;53.356;-1.748;2023-04-06T09:09:20;99026.56;;;9.61;100.00
69257;BME280;56376;53.356;-1.748;2023-04-06T09:11:49;99047.25;;;9.66;100.00
69257;BME280;56376;53.356;-1.748;2023-04-06T09:14:16;99041.13;;;9.67;100.00
69257;BME280;56376;53.356;-1.748;2023-04-06T09:16:43;99037.13;;;9.58;100.00
69257;BME280;56376;53.356;-1.748;2023-04-06T09:19:11;99032.50;;;9.65;100.00
69257;BME280;56376;53.356;-1.748;2023-04-06T09:21:38;99033.31;;;9.87;100.00
69257;BME280;56376;53.356;-1.748;2023-04-06T09:24:07;99041.38;;;10.03;100.00
69257;BME280;56376;53.356;-1.748;2023-04-06T09:26:44;99030.88;;;10.05;100.00
69257;BME280;56376;53.356;-1.748;2023-04-06T09:29:10;99029.84;;;10.09;100.00
69257;BME280;56376;53.356;-1.748;2023-04-06T09:31:35;99034.53;;;10.21;100.00
69257;BME280;56376;53.356;-1.748;2023-04-06T09:34:01;99033.25;;;10.31;100.00
69257;BME280;56376;53.356;-1.748;2023-04-06T09:36:35;99026.31;;;10.30;100.00
69257;BME280;56376;53.356;-1.748;2023-04-06T09:39:04;99026.56;;;10.24;100.00
69257;BME280;56376;53.356;-1.748;2023-04-06T09:41:31;99041.16;;;10.30;100.00
69257;BME280;56376;53.356;-1.748;2023-04-06T09:44:05;99039.38;;;10.30;100.00
69257;BME280;56376;53.356;-1.748;2023-04-06T09:46:32;99042.00;;;10.30;98.68
69257;BME280;56376;53.356;-1.748;2023-04-06T09:49:00;99039.38;;;10.30;100.00
69257;BME280;56376;53.356;-1.748;2023-04-06T09:51:30;99041.00;;;10.33;100.00
69257;BME280;56376;53.356;-1.748;2023-04-06T09:53:57;99039.97;;;10.37;100.00
69257;BME280;56376;53.356;-1.748;2023-04-06T09:56:28;99037.66;;;10.31;100.00
69257;BME280;56376;53.356;-1.748;2023-04-06T09:59:01;99040.03;;;10.35;100.00
69257;BME280;56376;53.356;-1.748;2023-04-06T10:01:28;99032.09;;;10.38;100.00
69257;BME280;56376;53.356;-1.748;2023-04-06T10:06:46;99053.34;;;10.50;100.00
69257;BME280;56376;53.356;-1.748;2023-04-06T10:09:13;99058.44;;;10.53;100.00
69257;BME280;56376;53.356;-1.748;2023-04-06T10:11:39;99060.94;;;10.56;100.00
69257;BME280;56376;53.356;-1.748;2023-04-06T10:14:06;99063.41;;;10.59;100.00
69257;BME280;56376;53.356;-1.748;2023-04-06T10:16:32;99073.75;;;10.60;100.00
69257;BME280;56376;53.356;-1.748;2023-04-06T10:19:13;99076.38;;;10.60;98.32
69257;BME280;56376;53.356;-1.748;2023-04-06T10:21:39;99073.00;;;10.58;97.67
69257;BME280;56376;53.356;-1.748;2023-04-06T10:24:08;99084.53;;;10.53;99.83
69257;BME280;56376;53.356;-1.748;2023-04-06T10:26:38;99080.28;;;10.50;99.92
69257;BME280;56376;53.356;-1.748;2023-04-06T10:29:05;99089.91;;;10.50;100.00
69257;BME280;56376;53.356;-1.748;2023-04-06T10:31:31;99092.28;;;10.56;98.77
69257;BME280;56376;53.356;-1.748;2023-04-06T10:33:59;99089.38;;;10.62;98.25
69257;BME280;56376;53.356;-1.748;2023-04-06T10:36:32;99085.06;;;10.61;100.00
69257;BME280;56376;53.356;-1.748;2023-04-06T10:38:59;99090.81;;;10.69;100.00
69257;BME280;56376;53.356;-1.748;2023-04-06T10:41:36;99094.66;;;10.81;90.54
69257;BME280;56376;53.356;-1.748;2023-04-06T10:44:02;99095.75;;;10.75;92.08
69257;BME280;56376;53.356;-1.748;2023-04-06T10:46:30;99097.81;;;10.69;94.55
69257;BME280;56376;53.356;-1.748;2023-04-06T10:48:55;99096.81;;;10.71;96.77
69257;BME280;56376;53.356;-1.748;2023-04-06T10:51:26;99102.34;;;10.84;99.69
69257;BME280;56376;53.356;-1.748;2023-04-06T10:53:55;99107.78;;;10.98;99.23
69257;BME280;56376;53.356;-1.748;2023-04-06T10:56:24;99098.13;;;11.00;98.10
69257;BME280;56376;53.356;-1.748;2023-04-06T10:58:54;99118.34;;;10.97;93.83
69257;BME280;56376;53.356;-1.748;2023-04-06T11:01:23;99118.09;;;10.82;89.70
69257;BME280;56376;53.356;-1.748;2023-04-06T11:03:53;99097.91;;;10.66;89.25
69257;BME280;56376;53.356;-1.748;2023-04-06T11:06:22;99122.03;;;10.52;91.29
69257;BME280;56376;53.356;-1.748;2023-04-06T11:08:48;99128.56;;;10.42;91.43
69257;BME280;56376;53.356;-1.748;2023-04-06T11:11:16;99117.31;;;10.39;93.71
69257;BME280;56376;53.356;-1.748;2023-04-06T11:16:13;99115.50;;;10.62;91.28
69257;BME280;56376;53.356;-1.748;2023-04-06T11:18:47;99132.13;;;10.80;88.51
69257;BME280;56376;53.356;-1.748;2023-04-06T11:21:13;99116.50;;;10.99;95.63
69257;BME280;56376;53.356;-1.748;2023-04-06T11:23:38;99120.13;;;11.15;94.57
69257;BME280;56376;53.356;-1.748;2023-04-06T11:26:03;99114.34;;;11.27;91.71
69257;BME280;56376;53.356;-1.748;2023-04-06T11:28:29;99122.13;;;11.29;87.44
69257;BME280;56376;53.356;-1.748;2023-04-06T11:30:55;99121.69;;;11.38;89.80
69257;BME280;56376;53.356;-1.748;2023-04-06T11:33:21;99120.69;;;11.41;88.49
69257;BME280;56376;53.356;-1.748;2023-04-06T11:35:48;99119.22;;;11.35;90.01
69257;BME280;56376;53.356;-1.748;2023-04-06T11:38:13;99133.63;;;11.25;88.76
69257;BME280;56376;53.356;-1.748;2023-04-06T11:40:39;99139.16;;;11.19;87.68
69257;BME280;56376;53.356;-1.748;2023-04-06T11:43:04;99143.28;;;11.04;87.08
69257;BME280;56376;53.356;-1.748;2023-04-06T11:45:42;99146.16;;;10.98;88.89
69257;BME280;56376;53.356;-1.748;2023-04-06T11:48:17;99154.78;;;11.00;88.05
69257;BME280;56376;53.356;-1.748;2023-04-06T11:50:46;99140.03;;;10.99;91.33
69257;BME280;56376;53.356;-1.748;2023-04-06T11:53:11;99139.47;;;11.11;92.13
69257;BME280;56376;53.356;-1.748;2023-04-06T11:55:37;99137.88;;;11.27;93.68
69257;BME280;56376;53.356;-1.748;2023-04-06T11:58:03;99130.31;;;11.40;92.84
69257;BME280;56376;53.356;-1.748;2023-04-06T12:00:28;99132.31;;;11.54;95.66
69257;BME280;56376;53.356;-1.748;2023-04-06T12:03:00;99127.34;;;11.67;93.64
69257;BME280;56376;53.356;-1.748;2023-04-06T12:05:26;99133.94;;;11.74;91.98
69257;BME280;56376;53.356;-1.748;2023-04-06T12:07:52;99130.50;;;11.74;86.13
69257;BME280;56376;53.356;-1.748;2023-04-06T12:10:17;99138.84;;;11.63;87.76
69257;BME280;56376;53.356;-1.748;2023-04-06T12:12:42;99129.69;;;11.54;90.80
69257;BME280;56376;53.356;-1.748;2023-04-06T12:15:08;99134.13;;;11.52;91.86
69257;BME280;56376;53.356;-1.748;2023-04-06T12:17:34;99131.38;;;11.55;90.41
69257;BME280;56376;53.356;-1.748;2023-04-06T12:20:02;99148.06;;;11.53;85.61
69257;BME280;56376;53.356;-1.748;2023-04-06T12:22:28;99154.78;;;11.39;88.08
69257;BME280;56376;53.356;-1.748;2023-04-06T12:24:53;99150.16;;;11.25;90.14
69257;BME280;56376;53.356;-1.748;2023-04-06T12:27:19;99151.44;;;11.17;93.20
69257;BME280;56376;53.356;-1.748;2023-04-06T12:29:44;99143.09;;;11.27;93.16
69257;BME280;56376;53.356;-1.748;2023-04-06T12:32:10;99154.03;;;11.36;88.25
69257;BME280;56376;53.356;-1.748;2023-04-06T12:34:35;99144.66;;;11.51;87.25
69257;BME280;56376;53.356;-1.748;2023-04-06T12:37:01;99147.53;;;11.63;91.46
69257;BME280;56376;53.356;-1.748;2023-04-06T12:39:27;99168.06;;;11.73;91.49
69257;BME280;56376;53.356;-1.748;2023-04-06T12:41:54;99170.38;;;11.79;93.10
69257;BME280;56376;53.356;-1.748;2023-04-06T12:44:20;99172.66;;;11.86;90.18
69257;BME280;56376;53.356;-1.748;2023-04-06T12:46:45;99178.69;;;11.88;92.66
69257;BME280;56376;53.356;-1.748;2023-04-06T12:49:11;99184.00;;;11.87;87.35
69257;BME280;56376;53.356;-1.748;2023-04-06T12:51:37;99188.31;;;11.88;89.55
69257;BME280;56376;53.356;-1.748;2023-04-06T12:54:02;99187.25;;;11.92;89.44